Airfield :
LOGIN :

Register | Disclaimer

   EN    FR    IT 

 










Legend :    VFR   Marginal VFR   IFR   Intensive IFR   Very Intensive IFR
Visi :
Ceiling :
>= 8 km
>= 3000ft
5 to 8 km
1000 to 3000 ft
1500m to 5 km
500 to 1000 ft
800 to 1500m
200 to 500 ft
< 800m
< 200 ft
Symbols :   Thunderstorms  Fog  Heavy snow  Heavy precipitations  Wind > 20 kt
SIGMETs :     Misc.  Thunderstorms  Icing  Turbulence  Mountain Waves  Volcanic Ashes






- Airport Elevation : 302 ft
- IATA code : CGN


EDDK - Cologne Bonn

CURRENT METAR :
  • 040120Z VRB02KT CAVOK M00/M03 Q1022 NOSIG

EXPIRED METARs :
  • 040050Z 06002KT CAVOK 01/M01 Q1022 NOSIG
  • 040020Z VRB01KT CAVOK 01/M01 Q1022 NOSIG
  • 032350Z 00000KT CAVOK 01/M01 Q1022 NOSIG
  • 032320Z 00000KT CAVOK 03/M01 Q1022 NOSIG
  • 032250Z 00000KT CAVOK 03/M01 Q1022 NOSIG

TAF TAF EDDK
Valid from the 04 at 00:00 until the 05 at 06:00 UTC


032300Z 0400/0506 VRB03KT CAVOK
BECMG 0406/0408 13006KT



MET'MAP, your aeronautical weather chart ! - Copyright ORBIFLY December 2007 - Disclaimer

ORBIFLY MET'MAP TEAM :

Programming & Development : Alexandra Zaïnal
Concept & original design : Baudouin d'Aumeries
Assistance for programming : Marc-Olivier Méhu
Technical & hardware support : Manuel Goepfert

Contact : metmap@orbifly.com




SOURCES & CREDITS :

   NOAA